sensor_id;sensor_type;location;lat;lon;timestamp;temperature;humidity
68924;DHT22;55961;52.156;20.942;2024-02-26T00:00:43;5.30;82.20
68924;DHT22;55961;52.156;20.942;2024-02-26T00:03:29;5.20;82.10
68924;DHT22;55961;52.156;20.942;2024-02-26T00:05:55;5.10;82.30
68924;DHT22;55961;52.156;20.942;2024-02-26T00:08:22;5.10;82.20
68924;DHT22;55961;52.156;20.942;2024-02-26T00:10:48;5.00;82.20
68924;DHT22;55961;52.156;20.942;2024-02-26T00:13:15;5.00;82.30
68924;DHT22;55961;52.156;20.942;2024-02-26T00:15:41;5.00;82.40
68924;DHT22;55961;52.156;20.942;2024-02-26T00:18:07;4.90;82.90
68924;DHT22;55961;52.156;20.942;2024-02-26T00:20:33;4.90;83.90
68924;DHT22;55961;52.156;20.942;2024-02-26T00:22:59;4.80;85.10
68924;DHT22;55961;52.156;20.942;2024-02-26T00:25:26;4.80;85.30
68924;DHT22;55961;52.156;20.942;2024-02-26T00:27:55;4.70;85.80
68924;DHT22;55961;52.156;20.942;2024-02-26T00:30:25;4.70;86.90
68924;DHT22;55961;52.156;20.942;2024-02-26T00:32:52;4.70;86.60
68924;DHT22;55961;52.156;20.942;2024-02-26T00:35:18;4.70;86.90
68924;DHT22;55961;52.156;20.942;2024-02-26T00:37:46;4.70;87.50
68924;DHT22;55961;52.156;20.942;2024-02-26T00:40:12;4.70;88.10
68924;DHT22;55961;52.156;20.942;2024-02-26T00:42:38;4.60;88.70
68924;DHT22;55961;52.156;20.942;2024-02-26T00:45:04;4.70;88.60
68924;DHT22;55961;52.156;20.942;2024-02-26T00:47:30;4.60;88.50
68924;DHT22;55961;52.156;20.942;2024-02-26T00:49:56;4.70;88.50
68924;DHT22;55961;52.156;20.942;2024-02-26T00:52:22;4.60;88.50
68924;DHT22;55961;52.156;20.942;2024-02-26T00:54:48;4.70;88.50
68924;DHT22;55961;52.156;20.942;2024-02-26T00:57:14;4.60;88.40
68924;DHT22;55961;52.156;20.942;2024-02-26T00:59:40;4.60;88.40
68924;DHT22;55961;52.156;20.942;2024-02-26T01:02:06;4.60;88.50
68924;DHT22;55961;52.156;20.942;2024-02-26T01:04:32;4.60;88.40
68924;DHT22;55961;52.156;20.942;2024-02-26T01:07:00;4.60;88.40
68924;DHT22;55961;52.156;20.942;2024-02-26T01:09:25;4.60;88.20
68924;DHT22;55961;52.156;20.942;2024-02-26T01:11:51;4.60;88.20
68924;DHT22;55961;52.156;20.942;2024-02-26T01:14:17;4.50;88.10
68924;DHT22;55961;52.156;20.942;2024-02-26T01:16:43;4.50;88.00
68924;DHT22;55961;52.156;20.942;2024-02-26T01:19:09;4.50;88.20
68924;DHT22;55961;52.156;20.942;2024-02-26T01:21:35;4.50;88.20
68924;DHT22;55961;52.156;20.942;2024-02-26T01:24:01;4.50;88.20
68924;DHT22;55961;52.156;20.942;2024-02-26T01:26:27;4.40;87.90
68924;DHT22;55961;52.156;20.942;2024-02-26T01:28:53;4.40;87.90
68924;DHT22;55961;52.156;20.942;2024-02-26T01:31:20;4.40;87.70
68924;DHT22;55961;52.156;20.942;2024-02-26T01:33:46;4.30;87.60
68924;DHT22;55961;52.156;20.942;2024-02-26T01:36:12;4.30;87.70
68924;DHT22;55961;52.156;20.942;2024-02-26T01:38:38;4.30;87.50
68924;DHT22;55961;52.156;20.942;2024-02-26T01:41:04;4.30;87.50
68924;DHT22;55961;52.156;20.942;2024-02-26T01:43:30;4.20;88.10
68924;DHT22;55961;52.156;20.942;2024-02-26T01:45:56;4.20;88.00
68924;DHT22;55961;52.156;20.942;2024-02-26T01:48:22;4.20;88.30
68924;DHT22;55961;52.156;20.942;2024-02-26T01:50:48;4.20;88.30
68924;DHT22;55961;52.156;20.942;2024-02-26T01:53:15;4.10;88.30
68924;DHT22;55961;52.156;20.942;2024-02-26T01:55:41;4.10;88.30
68924;DHT22;55961;52.156;20.942;2024-02-26T01:58:07;4.10;88.10
68924;DHT22;55961;52.156;20.942;2024-02-26T02:00:34;4.10;88.00
68924;DHT22;55961;52.156;20.942;2024-02-26T02:03:02;4.00;88.20
68924;DHT22;55961;52.156;20.942;2024-02-26T02:05:29;4.00;88.00
68924;DHT22;55961;52.156;20.942;2024-02-26T02:07:55;4.00;88.00
68924;DHT22;55961;52.156;20.942;2024-02-26T02:10:22;4.00;87.90
68924;DHT22;55961;52.156;20.942;2024-02-26T02:12:49;3.90;88.00
68924;DHT22;55961;52.156;20.942;2024-02-26T02:15:15;3.90;88.30
68924;DHT22;55961;52.156;20.942;2024-02-26T02:17:41;3.90;88.10
68924;DHT22;55961;52.156;20.942;2024-02-26T02:20:15;3.80;88.10
68924;DHT22;55961;52.156;20.942;2024-02-26T02:22:42;3.80;88.00
68924;DHT22;55961;52.156;20.942;2024-02-26T02:25:08;3.80;87.80
68924;DHT22;55961;52.156;20.942;2024-02-26T02:27:34;3.70;87.70
68924;DHT22;55961;52.156;20.942;2024-02-26T02:30:01;3.70;88.00
68924;DHT22;55961;52.156;20.942;2024-02-26T02:32:30;3.70;88.10
68924;DHT22;55961;52.156;20.942;2024-02-26T02:35:10;3.60;88.00
68924;DHT22;55961;52.156;20.942;2024-02-26T02:37:36;3.60;87.70
68924;DHT22;55961;52.156;20.942;2024-02-26T02:40:03;3.60;87.70
68924;DHT22;55961;52.156;20.942;2024-02-26T02:42:29;3.60;88.00
68924;DHT22;55961;52.156;20.942;2024-02-26T02:44:55;3.50;88.10
68924;DHT22;55961;52.156;20.942;2024-02-26T02:47:21;3.50;88.20
68924;DHT22;55961;52.156;20.942;2024-02-26T02:49:47;3.50;88.10
68924;DHT22;55961;52.156;20.942;2024-02-26T02:52:13;3.50;88.00
68924;DHT22;55961;52.156;20.942;2024-02-26T02:54:39;3.40;87.90
68924;DHT22;55961;52.156;20.942;2024-02-26T02:57:08;3.40;88.10
68924;DHT22;55961;52.156;20.942;2024-02-26T02:59:35;3.40;88.50
68924;DHT22;55961;52.156;20.942;2024-02-26T03:02:01;3.40;88.70
68924;DHT22;55961;52.156;20.942;2024-02-26T03:04:27;3.40;89.20
68924;DHT22;55961;52.156;20.942;2024-02-26T03:06:52;3.40;89.50
68924;DHT22;55961;52.156;20.942;2024-02-26T03:09:18;3.30;90.00
68924;DHT22;55961;52.156;20.942;2024-02-26T03:11:44;3.30;90.30
68924;DHT22;55961;52.156;20.942;2024-02-26T03:14:10;3.40;90.40
68924;DHT22;55961;52.156;20.942;2024-02-26T03:16:36;3.30;90.80
68924;DHT22;55961;52.156;20.942;2024-02-26T03:19:02;3.40;91.00
68924;DHT22;55961;52.156;20.942;2024-02-26T03:21:28;3.40;91.00
68924;DHT22;55961;52.156;20.942;2024-02-26T03:23:55;3.40;91.00
68924;DHT22;55961;52.156;20.942;2024-02-26T03:26:21;3.40;91.00
68924;DHT22;55961;52.156;20.942;2024-02-26T03:28:47;3.30;90.90
68924;DHT22;55961;52.156;20.942;2024-02-26T03:31:13;3.40;90.80
68924;DHT22;55961;52.156;20.942;2024-02-26T03:33:39;3.30;90.70
68924;DHT22;55961;52.156;20.942;2024-02-26T03:36:05;3.30;91.20
68924;DHT22;55961;52.156;20.942;2024-02-26T03:38:33;3.30;91.90
68924;DHT22;55961;52.156;20.942;2024-02-26T03:40:59;3.30;92.20
68924;DHT22;55961;52.156;20.942;2024-02-26T03:43:25;3.30;92.50
68924;DHT22;55961;52.156;20.942;2024-02-26T03:45:51;3.30;93.30
68924;DHT22;55961;52.156;20.942;2024-02-26T03:48:17;3.30;94.00
68924;DHT22;55961;52.156;20.942;2024-02-26T03:50:43;3.30;94.50
68924;DHT22;55961;52.156;20.942;2024-02-26T03:53:09;3.30;95.10
68924;DHT22;55961;52.156;20.942;2024-02-26T03:55:38;3.40;95.50
68924;DHT22;55961;52.156;20.942;2024-02-26T03:58:04;3.30;95.70
68924;DHT22;55961;52.156;20.942;2024-02-26T04:00:30;3.30;96.60
68924;DHT22;55961;52.156;20.942;2024-02-26T04:02:56;3.40;96.70
68924;DHT22;55961;52.156;20.942;2024-02-26T04:05:22;3.40;96.60
68924;DHT22;55961;52.156;20.942;2024-02-26T04:07:48;3.40;96.70
68924;DHT22;55961;52.156;20.942;2024-02-26T04:10:14;3.40;96.60
68924;DHT22;55961;52.156;20.942;2024-02-26T04:12:41;3.40;96.40
68924;DHT22;55961;52.156;20.942;2024-02-26T04:15:11;3.40;96.50
68924;DHT22;55961;52.156;20.942;2024-02-26T04:17:37;3.40;96.20
68924;DHT22;55961;52.156;20.942;2024-02-26T04:20:04;3.40;96.10
68924;DHT22;55961;52.156;20.942;2024-02-26T04:22:33;3.40;96.10
68924;DHT22;55961;52.156;20.942;2024-02-26T04:24:59;3.40;95.90
68924;DHT22;55961;52.156;20.942;2024-02-26T04:27:25;3.40;95.90
68924;DHT22;55961;52.156;20.942;2024-02-26T04:29:50;3.40;95.80
68924;DHT22;55961;52.156;20.942;2024-02-26T04:32:16;3.40;95.70
68924;DHT22;55961;52.156;20.942;2024-02-26T04:34:42;3.30;95.60
68924;DHT22;55961;52.156;20.942;2024-02-26T04:37:08;3.30;95.40
68924;DHT22;55961;52.156;20.942;2024-02-26T04:39:34;3.30;95.40
68924;DHT22;55961;52.156;20.942;2024-02-26T04:42:00;3.30;95.30
68924;DHT22;55961;52.156;20.942;2024-02-26T04:44:29;3.30;95.10
68924;DHT22;55961;52.156;20.942;2024-02-26T04:46:56;3.30;95.00
68924;DHT22;55961;52.156;20.942;2024-02-26T04:49:22;3.20;95.10
68924;DHT22;55961;52.156;20.942;2024-02-26T04:51:48;3.20;95.10
68924;DHT22;55961;52.156;20.942;2024-02-26T04:54:14;3.20;95.10
68924;DHT22;55961;52.156;20.942;2024-02-26T04:56:40;3.20;95.10
68924;DHT22;55961;52.156;20.942;2024-02-26T04:59:06;3.20;95.20
68924;DHT22;55961;52.156;20.942;2024-02-26T05:01:32;3.10;95.10
68924;DHT22;55961;52.156;20.942;2024-02-26T05:03:57;3.10;95.30
68924;DHT22;55961;52.156;20.942;2024-02-26T05:06:24;3.10;95.40
68924;DHT22;55961;52.156;20.942;2024-02-26T05:08:49;3.10;95.60
68924;DHT22;55961;52.156;20.942;2024-02-26T05:11:16;3.10;95.70
68924;DHT22;55961;52.156;20.942;2024-02-26T05:13:43;3.10;95.90
68924;DHT22;55961;52.156;20.942;2024-02-26T05:16:12;3.10;96.30
68924;DHT22;55961;52.156;20.942;2024-02-26T05:18:38;3.10;96.30
68924;DHT22;55961;52.156;20.942;2024-02-26T05:21:04;3.10;96.70
68924;DHT22;55961;52.156;20.942;2024-02-26T05:23:30;3.10;96.70
68924;DHT22;55961;52.156;20.942;2024-02-26T05:25:56;3.10;96.80
68924;DHT22;55961;52.156;20.942;2024-02-26T05:28:22;3.10;96.80
68924;DHT22;55961;52.156;20.942;2024-02-26T05:30:48;3.10;96.90
68924;DHT22;55961;52.156;20.942;2024-02-26T05:33:14;3.10;97.10
68924;DHT22;55961;52.156;20.942;2024-02-26T05:35:40;3.10;97.10
68924;DHT22;55961;52.156;20.942;2024-02-26T05:38:06;3.10;97.10
68924;DHT22;55961;52.156;20.942;2024-02-26T05:40:33;3.20;97.30
68924;DHT22;55961;52.156;20.942;2024-02-26T05:42:59;3.20;97.30
68924;DHT22;55961;52.156;20.942;2024-02-26T05:45:25;3.20;97.40
68924;DHT22;55961;52.156;20.942;2024-02-26T05:47:50;3.20;97.30
68924;DHT22;55961;52.156;20.942;2024-02-26T05:50:17;3.20;97.40
68924;DHT22;55961;52.156;20.942;2024-02-26T05:52:42;3.30;97.40
68924;DHT22;55961;52.156;20.942;2024-02-26T05:55:09;3.30;97.70
68924;DHT22;55961;52.156;20.942;2024-02-26T05:57:35;3.30;97.80
68924;DHT22;55961;52.156;20.942;2024-02-26T06:00:01;3.30;98.20
68924;DHT22;55961;52.156;20.942;2024-02-26T06:02:30;3.40;99.20
68924;DHT22;55961;52.156;20.942;2024-02-26T06:04:56;3.40;99.80
68924;DHT22;55961;52.156;20.942;2024-02-26T06:07:23;3.40;99.90
68924;DHT22;55961;52.156;20.942;2024-02-26T06:09:49;3.50;99.90
68924;DHT22;55961;52.156;20.942;2024-02-26T06:12:15;3.50;99.90
68924;DHT22;55961;52.156;20.942;2024-02-26T06:14:42;3.50;99.90
68924;DHT22;55961;52.156;20.942;2024-02-26T06:17:08;3.60;99.90
68924;DHT22;55961;52.156;20.942;2024-02-26T06:19:34;3.60;99.90
68924;DHT22;55961;52.156;20.942;2024-02-26T06:22:00;3.70;99.90
68924;DHT22;55961;52.156;20.942;2024-02-26T06:24:26;3.70;99.90
68924;DHT22;55961;52.156;20.942;2024-02-26T06:26:52;3.80;99.90
68924;DHT22;55961;52.156;20.942;2024-02-26T06:29:18;3.80;99.90
68924;DHT22;55961;52.156;20.942;2024-02-26T06:31:44;3.90;99.90
68924;DHT22;55961;52.156;20.942;2024-02-26T06:34:10;3.90;99.90
68924;DHT22;55961;52.156;20.942;2024-02-26T06:36:37;4.00;99.90
68924;DHT22;55961;52.156;20.942;2024-02-26T06:39:03;4.00;99.90
68924;DHT22;55961;52.156;20.942;2024-02-26T06:41:31;4.10;99.90
68924;DHT22;55961;52.156;20.942;2024-02-26T06:43:57;4.10;99.90
68924;DHT22;55961;52.156;20.942;2024-02-26T06:46:23;4.20;99.90
68924;DHT22;55961;52.156;20.942;2024-02-26T06:48:49;4.30;99.90
68924;DHT22;55961;52.156;20.942;2024-02-26T06:51:15;4.40;99.90
68924;DHT22;55961;52.156;20.942;2024-02-26T06:53:41;4.50;99.90
68924;DHT22;55961;52.156;20.942;2024-02-26T06:56:07;4.60;99.90
68924;DHT22;55961;52.156;20.942;2024-02-26T06:58:33;4.80;99.90
68924;DHT22;55961;52.156;20.942;2024-02-26T07:00:59;4.90;99.90
68924;DHT22;55961;52.156;20.942;2024-02-26T07:03:25;5.10;99.90
68924;DHT22;55961;52.156;20.942;2024-02-26T07:05:51;5.20;99.90
68924;DHT22;55961;52.156;20.942;2024-02-26T07:08:18;5.30;99.90
68924;DHT22;55961;52.156;20.942;2024-02-26T07:10:44;5.40;99.90
68924;DHT22;55961;52.156;20.942;2024-02-26T07:13:10;5.60;99.90
68924;DHT22;55961;52.156;20.942;2024-02-26T07:15:36;5.60;99.90
68924;DHT22;55961;52.156;20.942;2024-02-26T07:18:02;5.80;99.90
68924;DHT22;55961;52.156;20.942;2024-02-26T07:20:31;5.90;99.90
68924;DHT22;55961;52.156;20.942;2024-02-26T07:22:58;6.00;99.90
68924;DHT22;55961;52.156;20.942;2024-02-26T07:25:24;6.10;99.90
68924;DHT22;55961;52.156;20.942;2024-02-26T07:27:50;6.20;99.90
68924;DHT22;55961;52.156;20.942;2024-02-26T07:30:17;6.40;99.90
68924;DHT22;55961;52.156;20.942;2024-02-26T07:32:43;6.50;99.90
68924;DHT22;55961;52.156;20.942;2024-02-26T07:35:10;6.60;99.90
68924;DHT22;55961;52.156;20.942;2024-02-26T07:37:36;6.70;99.90
68924;DHT22;55961;52.156;20.942;2024-02-26T07:40:02;6.80;99.90
68924;DHT22;55961;52.156;20.942;2024-02-26T07:42:29;6.90;99.90
68924;DHT22;55961;52.156;20.942;2024-02-26T07:44:55;7.00;99.90
68924;DHT22;55961;52.156;20.942;2024-02-26T07:47:21;7.20;99.90
68924;DHT22;55961;52.156;20.942;2024-02-26T07:49:47;7.30;99.90
68924;DHT22;55961;52.156;20.942;2024-02-26T07:52:13;7.40;99.90
68924;DHT22;55961;52.156;20.942;2024-02-26T07:54:39;7.50;99.90
68924;DHT22;55961;52.156;20.942;2024-02-26T07:57:05;7.70;99.90
68924;DHT22;55961;52.156;20.942;2024-02-26T07:59:32;7.80;99.90
68924;DHT22;55961;52.156;20.942;2024-02-26T08:01:58;7.90;99.90
68924;DHT22;55961;52.156;20.942;2024-02-26T08:04:24;8.00;99.90
68924;DHT22;55961;52.156;20.942;2024-02-26T08:06:52;8.10;99.90
68924;DHT22;55961;52.156;20.942;2024-02-26T08:09:18;8.30;99.90
68924;DHT22;55961;52.156;20.942;2024-02-26T08:11:44;8.40;99.90
68924;DHT22;55961;52.156;20.942;2024-02-26T08:14:10;8.50;99.90
68924;DHT22;55961;52.156;20.942;2024-02-26T08:16:36;8.60;99.90
68924;DHT22;55961;52.156;20.942;2024-02-26T08:19:01;8.70;99.90
68924;DHT22;55961;52.156;20.942;2024-02-26T08:21:27;8.90;99.90
68924;DHT22;55961;52.156;20.942;2024-02-26T08:23:53;9.00;99.90
68924;DHT22;55961;52.156;20.942;2024-02-26T08:26:20;9.20;99.90
68924;DHT22;55961;52.156;20.942;2024-02-26T08:28:48;9.30;99.90
68924;DHT22;55961;52.156;20.942;2024-02-26T08:31:15;9.40;99.90
68924;DHT22;55961;52.156;20.942;2024-02-26T08:33:40;9.50;99.90
68924;DHT22;55961;52.156;20.942;2024-02-26T08:36:07;9.50;99.90
68924;DHT22;55961;52.156;20.942;2024-02-26T08:38:32;9.60;99.90
68924;DHT22;55961;52.156;20.942;2024-02-26T08:41:01;9.70;99.90
68924;DHT22;55961;52.156;20.942;2024-02-26T08:43:28;9.80;99.90
68924;DHT22;55961;52.156;20.942;2024-02-26T08:45:54;9.90;99.90
68924;DHT22;55961;52.156;20.942;2024-02-26T08:48:20;10.00;99.20
68924;DHT22;55961;52.156;20.942;2024-02-26T08:50:46;10.10;98.70
68924;DHT22;55961;52.156;20.942;2024-02-26T08:53:12;10.10;98.80
68924;DHT22;55961;52.156;20.942;2024-02-26T08:55:38;10.20;99.10
68924;DHT22;55961;52.156;20.942;2024-02-26T08:58:04;10.30;98.10
68924;DHT22;55961;52.156;20.942;2024-02-26T09:00:30;10.40;97.70
68924;DHT22;55961;52.156;20.942;2024-02-26T09:02:56;10.50;97.40
68924;DHT22;55961;52.156;20.942;2024-02-26T09:05:22;10.60;96.80
68924;DHT22;55961;52.156;20.942;2024-02-26T09:07:48;10.60;96.50
68924;DHT22;55961;52.156;20.942;2024-02-26T09:10:14;10.70;96.10
68924;DHT22;55961;52.156;20.942;2024-02-26T09:12:40;10.70;96.10
68924;DHT22;55961;52.156;20.942;2024-02-26T09:15:07;10.80;96.00
68924;DHT22;55961;52.156;20.942;2024-02-26T09:17:33;10.80;95.70
68924;DHT22;55961;52.156;20.942;2024-02-26T09:19:59;10.80;95.50
68924;DHT22;55961;52.156;20.942;2024-02-26T09:22:25;10.90;95.60
68924;DHT22;55961;52.156;20.942;2024-02-26T09:24:51;10.90;95.30
68924;DHT22;55961;52.156;20.942;2024-02-26T09:27:19;11.00;95.30
68924;DHT22;55961;52.156;20.942;2024-02-26T09:29:45;11.10;95.50
68924;DHT22;55961;52.156;20.942;2024-02-26T09:32:12;11.20;94.50
68924;DHT22;55961;52.156;20.942;2024-02-26T09:34:40;11.30;93.60
68924;DHT22;55961;52.156;20.942;2024-02-26T09:37:06;11.40;93.80
68924;DHT22;55961;52.156;20.942;2024-02-26T09:39:32;11.50;93.80
68924;DHT22;55961;52.156;20.942;2024-02-26T09:41:58;11.70;92.50
68924;DHT22;55961;52.156;20.942;2024-02-26T09:44:27;11.80;91.40
68924;DHT22;55961;52.156;20.942;2024-02-26T09:46:56;11.80;90.60
68924;DHT22;55961;52.156;20.942;2024-02-26T09:49:23;11.80;90.90
68924;DHT22;55961;52.156;20.942;2024-02-26T09:51:50;11.90;90.70
68924;DHT22;55961;52.156;20.942;2024-02-26T09:54:17;11.90;90.10
68924;DHT22;55961;52.156;20.942;2024-02-26T09:56:43;12.00;90.10
68924;DHT22;55961;52.156;20.942;2024-02-26T09:59:16;12.00;89.50
68924;DHT22;55961;52.156;20.942;2024-02-26T10:01:44;12.00;89.40
68924;DHT22;55961;52.156;20.942;2024-02-26T10:04:12;12.00;89.60
68924;DHT22;55961;52.156;20.942;2024-02-26T10:06:38;12.00;89.30
68924;DHT22;55961;52.156;20.942;2024-02-26T10:09:05;12.00;88.90
68924;DHT22;55961;52.156;20.942;2024-02-26T10:11:35;12.00;88.50
68924;DHT22;55961;52.156;20.942;2024-02-26T10:14:03;12.00;88.20
68924;DHT22;55961;52.156;20.942;2024-02-26T10:16:29;12.10;88.50
68924;DHT22;55961;52.156;20.942;2024-02-26T10:18:55;12.00;88.40
68924;DHT22;55961;52.156;20.942;2024-02-26T10:21:22;12.10;87.70
68924;DHT22;55961;52.156;20.942;2024-02-26T10:23:49;12.00;87.40
68924;DHT22;55961;52.156;20.942;2024-02-26T10:26:16;12.00;87.60
68924;DHT22;55961;52.156;20.942;2024-02-26T10:28:44;12.00;87.50
68924;DHT22;55961;52.156;20.942;2024-02-26T10:31:11;12.00;87.80
68924;DHT22;55961;52.156;20.942;2024-02-26T10:33:38;12.00;87.80
68924;DHT22;55961;52.156;20.942;2024-02-26T10:36:07;12.00;87.80
68924;DHT22;55961;52.156;20.942;2024-02-26T10:38:35;12.00;87.80
68924;DHT22;55961;52.156;20.942;2024-02-26T10:41:06;12.00;88.00
68924;DHT22;55961;52.156;20.942;2024-02-26T10:43:32;12.00;87.80
68924;DHT22;55961;52.156;20.942;2024-02-26T10:45:58;12.00;87.30
68924;DHT22;55961;52.156;20.942;2024-02-26T10:48:24;12.00;86.90
68924;DHT22;55961;52.156;20.942;2024-02-26T10:50:50;12.00;86.90
68924;DHT22;55961;52.156;20.942;2024-02-26T10:53:19;12.00;87.10
68924;DHT22;55961;52.156;20.942;2024-02-26T10:55:52;12.00;86.90
68924;DHT22;55961;52.156;20.942;2024-02-26T10:58:18;12.00;87.20
68924;DHT22;55961;52.156;20.942;2024-02-26T11:00:46;12.00;86.20
68924;DHT22;55961;52.156;20.942;2024-02-26T11:03:14;12.00;85.90
68924;DHT22;55961;52.156;20.942;2024-02-26T11:05:43;12.00;86.40
68924;DHT22;55961;52.156;20.942;2024-02-26T11:08:11;11.90;86.60
68924;DHT22;55961;52.156;20.942;2024-02-26T11:10:38;11.90;86.60
68924;DHT22;55961;52.156;20.942;2024-02-26T11:13:06;11.90;86.60
68924;DHT22;55961;52.156;20.942;2024-02-26T11:15:34;11.90;86.70
68924;DHT22;55961;52.156;20.942;2024-02-26T11:18:01;11.90;86.70
68924;DHT22;55961;52.156;20.942;2024-02-26T11:20:30;11.90;86.80
68924;DHT22;55961;52.156;20.942;2024-02-26T11:22:58;11.90;86.60
68924;DHT22;55961;52.156;20.942;2024-02-26T11:25:24;11.90;86.20
68924;DHT22;55961;52.156;20.942;2024-02-26T11:28:00;11.80;86.40
68924;DHT22;55961;52.156;20.942;2024-02-26T11:30:30;11.80;87.30
68924;DHT22;55961;52.156;20.942;2024-02-26T11:32:57;11.90;87.70
68924;DHT22;55961;52.156;20.942;2024-02-26T11:35:24;12.10;88.70
68924;DHT22;55961;52.156;20.942;2024-02-26T11:37:57;12.30;88.60
68924;DHT22;55961;52.156;20.942;2024-02-26T11:40:24;12.60;85.30
68924;DHT22;55961;52.156;20.942;2024-02-26T11:42:54;12.90;85.00
68924;DHT22;55961;52.156;20.942;2024-02-26T11:48:11;13.40;81.90
68924;DHT22;55961;52.156;20.942;2024-02-26T11:50:42;13.50;79.60
68924;DHT22;55961;52.156;20.942;2024-02-26T11:55:45;14.00;78.80
68924;DHT22;55961;52.156;20.942;2024-02-26T11:58:11;14.20;77.10
68924;DHT22;55961;52.156;20.942;2024-02-26T12:00:40;14.40;76.90
68924;DHT22;55961;52.156;20.942;2024-02-26T12:03:07;14.50;76.70
68924;DHT22;55961;52.156;20.942;2024-02-26T12:05:34;14.70;76.30
68924;DHT22;55961;52.156;20.942;2024-02-26T12:08:04;14.90;75.60
68924;DHT22;55961;52.156;20.942;2024-02-26T12:10:33;15.10;74.30
68924;DHT22;55961;52.156;20.942;2024-02-26T12:13:12;15.20;73.30
68924;DHT22;55961;52.156;20.942;2024-02-26T12:15:41;15.40;73.20
68924;DHT22;55961;52.156;20.942;2024-02-26T12:18:08;15.60;72.50
68924;DHT22;55961;52.156;20.942;2024-02-26T12:20:35;15.80;72.50
68924;DHT22;55961;52.156;20.942;2024-02-26T12:23:03;16.10;71.50
68924;DHT22;55961;52.156;20.942;2024-02-26T12:25:30;16.30;69.80
68924;DHT22;55961;52.156;20.942;2024-02-26T12:27:57;16.40;69.70
68924;DHT22;55961;52.156;20.942;2024-02-26T12:30:23;16.60;68.60
68924;DHT22;55961;52.156;20.942;2024-02-26T12:32:53;16.80;68.10
68924;DHT22;55961;52.156;20.942;2024-02-26T12:35:26;16.90;66.90
68924;DHT22;55961;52.156;20.942;2024-02-26T12:37:55;17.10;67.30
68924;DHT22;55961;52.156;20.942;2024-02-26T12:40:21;17.20;65.10
68924;DHT22;55961;52.156;20.942;2024-02-26T12:42:48;17.30;64.00
68924;DHT22;55961;52.156;20.942;2024-02-26T12:45:14;17.40;62.80
68924;DHT22;55961;52.156;20.942;2024-02-26T12:47:45;17.40;62.60
68924;DHT22;55961;52.156;20.942;2024-02-26T12:50:12;17.50;62.90
68924;DHT22;55961;52.156;20.942;2024-02-26T12:52:44;17.50;62.10
68924;DHT22;55961;52.156;20.942;2024-02-26T12:55:15;17.50;60.40
68924;DHT22;55961;52.156;20.942;2024-02-26T12:57:43;17.60;60.40
68924;DHT22;55961;52.156;20.942;2024-02-26T13:00:12;17.60;59.60
68924;DHT22;55961;52.156;20.942;2024-02-26T13:02:41;17.60;59.30
68924;DHT22;55961;52.156;20.942;2024-02-26T13:05:10;17.70;58.60
68924;DHT22;55961;52.156;20.942;2024-02-26T13:07:43;17.70;59.50
68924;DHT22;55961;52.156;20.942;2024-02-26T13:10:10;17.80;59.70
68924;DHT22;55961;52.156;20.942;2024-02-26T13:12:47;17.80;58.60
68924;DHT22;55961;52.156;20.942;2024-02-26T13:15:17;17.90;58.50
68924;DHT22;55961;52.156;20.942;2024-02-26T13:17:44;18.00;58.10
68924;DHT22;55961;52.156;20.942;2024-02-26T13:20:10;18.00;56.20
68924;DHT22;55961;52.156;20.942;2024-02-26T13:22:37;18.10;56.80
68924;DHT22;55961;52.156;20.942;2024-02-26T13:25:03;18.00;57.10
68924;DHT22;55961;52.156;20.942;2024-02-26T13:27:29;18.00;58.10
68924;DHT22;55961;52.156;20.942;2024-02-26T13:32:28;18.00;56.40
68924;DHT22;55961;52.156;20.942;2024-02-26T13:35:12;17.90;57.60
68924;DHT22;55961;52.156;20.942;2024-02-26T13:37:40;17.90;56.30
68924;DHT22;55961;52.156;20.942;2024-02-26T13:40:07;17.90;57.10
68924;DHT22;55961;52.156;20.942;2024-02-26T13:42:35;17.80;57.60
68924;DHT22;55961;52.156;20.942;2024-02-26T13:45:02;17.80;58.50
68924;DHT22;55961;52.156;20.942;2024-02-26T13:47:28;17.90;57.50
68924;DHT22;55961;52.156;20.942;2024-02-26T13:49:54;17.90;57.60
68924;DHT22;55961;52.156;20.942;2024-02-26T13:52:20;17.90;57.40
68924;DHT22;55961;52.156;20.942;2024-02-26T13:54:46;18.00;56.50
68924;DHT22;55961;52.156;20.942;2024-02-26T13:57:12;17.90;55.80
68924;DHT22;55961;52.156;20.942;2024-02-26T13:59:38;17.90;54.50
68924;DHT22;55961;52.156;20.942;2024-02-26T14:02:11;17.90;55.20
68924;DHT22;55961;52.156;20.942;2024-02-26T14:04:37;17.90;55.60
68924;DHT22;55961;52.156;20.942;2024-02-26T14:07:04;17.80;55.20
68924;DHT22;55961;52.156;20.942;2024-02-26T14:09:30;17.80;54.80
68924;DHT22;55961;52.156;20.942;2024-02-26T14:11:59;17.60;55.90
68924;DHT22;55961;52.156;20.942;2024-02-26T14:14:27;17.50;56.10
68924;DHT22;55961;52.156;20.942;2024-02-26T14:16:53;17.40;56.80
68924;DHT22;55961;52.156;20.942;2024-02-26T14:19:19;17.30;56.90
68924;DHT22;55961;52.156;20.942;2024-02-26T14:21:45;17.20;57.00
68924;DHT22;55961;52.156;20.942;2024-02-26T14:24:11;17.10;56.80
68924;DHT22;55961;52.156;20.942;2024-02-26T14:26:37;17.00;57.00
68924;DHT22;55961;52.156;20.942;2024-02-26T14:29:03;17.00;57.30
68924;DHT22;55961;52.156;20.942;2024-02-26T14:31:29;16.90;57.50
68924;DHT22;55961;52.156;20.942;2024-02-26T14:33:55;16.80;58.50
68924;DHT22;55961;52.156;20.942;2024-02-26T14:36:21;16.70;58.50
68924;DHT22;55961;52.156;20.942;2024-02-26T14:38:48;16.60;58.50
68924;DHT22;55961;52.156;20.942;2024-02-26T14:41:14;16.60;59.00
68924;DHT22;55961;52.156;20.942;2024-02-26T14:43:40;16.50;59.50
68924;DHT22;55961;52.156;20.942;2024-02-26T14:46:06;16.40;59.70
68924;DHT22;55961;52.156;20.942;2024-02-26T14:48:31;16.30;60.20
68924;DHT22;55961;52.156;20.942;2024-02-26T14:50:58;16.30;60.40
68924;DHT22;55961;52.156;20.942;2024-02-26T14:53:24;16.20;60.40
68924;DHT22;55961;52.156;20.942;2024-02-26T14:55:51;16.20;60.90
68924;DHT22;55961;52.156;20.942;2024-02-26T14:58:16;16.10;61.00
68924;DHT22;55961;52.156;20.942;2024-02-26T15:00:43;16.00;61.20
68924;DHT22;55961;52.156;20.942;2024-02-26T15:03:08;15.90;61.30
68924;DHT22;55961;52.156;20.942;2024-02-26T15:05:35;15.90;61.70
68924;DHT22;55961;52.156;20.942;2024-02-26T15:08:01;15.80;61.90
68924;DHT22;55961;52.156;20.942;2024-02-26T15:10:28;15.70;63.30
68924;DHT22;55961;52.156;20.942;2024-02-26T15:12:54;15.70;63.80
68924;DHT22;55961;52.156;20.942;2024-02-26T15:15:21;15.60;64.00
68924;DHT22;55961;52.156;20.942;2024-02-26T15:17:48;15.60;64.40
68924;DHT22;55961;52.156;20.942;2024-02-26T15:20:15;15.50;64.50
68924;DHT22;55961;52.156;20.942;2024-02-26T15:22:41;15.40;64.00
68924;DHT22;55961;52.156;20.942;2024-02-26T15:25:08;15.40;64.00
68924;DHT22;55961;52.156;20.942;2024-02-26T15:27:34;15.30;64.30
68924;DHT22;55961;52.156;20.942;2024-02-26T15:30:03;15.20;64.60